createdAt,value
2022-11-02T00:01:43.013Z,50.90
2022-11-02T00:04:15.623Z,51.30
2022-11-02T00:06:47.453Z,51.90
2022-11-02T00:09:20.092Z,52.40
2022-11-02T00:11:52.343Z,50.20
2022-11-02T00:14:24.429Z,51.90
2022-11-02T00:16:56.595Z,50.20
2022-11-02T00:19:28.659Z,52.60
2022-11-02T00:22:02.712Z,50.60
2022-11-02T00:24:37.822Z,51.20
2022-11-02T00:27:11.491Z,51.30
2022-11-02T00:29:44.033Z,49.40
2022-11-02T00:32:18.057Z,48.40
2022-11-02T00:34:52.332Z,49.50
2022-11-02T00:37:24.161Z,48.60
2022-11-02T00:39:55.986Z,47.20
2022-11-02T00:42:30.586Z,47.70
2022-11-02T00:45:02.914Z,47.60
2022-11-02T00:47:34.862Z,48.10
2022-11-02T00:50:09.362Z,46.30
2022-11-02T00:52:43.488Z,46.60
2022-11-02T00:55:18.213Z,46.10
2022-11-02T00:57:50.193Z,46.80
2022-11-02T01:00:25.597Z,46.10
2022-11-02T01:03:00.259Z,45.00
2022-11-02T01:05:37.530Z,43.70
2022-11-02T01:08:09.746Z,44.70
2022-11-02T01:10:45.513Z,43.00
2022-11-02T01:13:23.721Z,43.80
2022-11-02T01:15:55.654Z,43.10
2022-11-02T01:18:32.490Z,42.80
2022-11-02T01:21:04.813Z,42.80
2022-11-02T01:23:38.186Z,43.40
2022-11-02T01:26:11.917Z,42.40
2022-11-02T01:28:47.469Z,41.40
2022-11-02T01:31:19.266Z,43.20
2022-11-02T01:33:51.244Z,42.50
2022-11-02T01:39:00.888Z,42.10
2022-11-02T01:41:35.460Z,41.80
2022-11-02T01:44:29.363Z,42.60
2022-11-02T01:47:06.545Z,41.40
2022-11-02T01:49:49.644Z,41.50
2022-11-02T01:52:26.862Z,41.00
2022-11-02T01:55:06.553Z,40.60
2022-11-02T01:57:56.976Z,40.70
2022-11-02T02:00:31.508Z,41.20
2022-11-02T02:03:09.008Z,40.10
2022-11-02T02:05:46.514Z,38.70
2022-11-02T02:08:28.221Z,39.50
2022-11-02T02:11:00.673Z,40.20
2022-11-02T02:13:33.313Z,39.20
2022-11-02T02:16:17.375Z,39.60
2022-11-02T02:19:00.257Z,40.20
2022-11-02T02:21:43.266Z,40.20
2022-11-02T02:24:32.238Z,39.20
2022-11-02T02:27:17.368Z,39.20
2022-11-02T02:30:03.240Z,38.40
2022-11-02T02:32:42.289Z,39.60
2022-11-02T02:35:25.784Z,38.40
2022-11-02T02:38:02.178Z,38.50
2022-11-02T02:40:39.747Z,38.40
2022-11-02T02:43:17.871Z,37.70
2022-11-02T02:45:56.763Z,38.30
2022-11-02T02:48:29.652Z,38.60
2022-11-02T02:51:08.428Z,37.80
2022-11-02T02:53:45.587Z,37.30
2022-11-02T02:56:24.562Z,36.30
2022-11-02T02:59:03.547Z,36.00
2022-11-02T03:01:40.780Z,36.00
2022-11-02T03:04:16.329Z,34.70
2022-11-02T03:06:56.076Z,34.70
2022-11-02T03:09:33.814Z,33.90
2022-11-02T03:15:21.618Z,32.90
2022-11-02T03:18:07.650Z,34.20
2022-11-02T03:20:54.501Z,34.30
2022-11-02T03:23:30.940Z,34.70
2022-11-02T03:26:09.595Z,34.90
2022-11-02T03:28:58.067Z,35.50
2022-11-02T03:31:47.316Z,34.70
2022-11-02T03:34:29.900Z,35.20
2022-11-02T03:39:47.052Z,36.20
2022-11-02T03:42:24.664Z,35.00
2022-11-02T03:45:02.301Z,34.40
2022-11-02T03:47:38.039Z,35.80
2022-11-02T03:50:19.994Z,37.30
2022-11-02T03:52:58.751Z,36.60
2022-11-02T03:55:40.093Z,35.10
2022-11-02T03:58:13.946Z,36.00
2022-11-02T04:00:53.395Z,36.60
2022-11-02T04:03:26.355Z,35.20
2022-11-02T04:05:58.847Z,35.20
2022-11-02T04:08:37.865Z,33.80
2022-11-02T04:11:30.454Z,36.10
2022-11-02T04:14:27.939Z,38.30
2022-11-02T04:17:14.155Z,36.50
2022-11-02T04:19:50.509Z,36.40
2022-11-02T04:22:41.648Z,37.50
2022-11-02T04:25:21.684Z,37.00
2022-11-02T04:28:13.705Z,38.10
2022-11-02T04:30:50.412Z,43.50
2022-11-02T04:33:37.561Z,43.80
2022-11-02T04:36:15.080Z,43.60
2022-11-02T04:38:48.085Z,42.50
2022-11-02T04:41:45.361Z,41.50
2022-11-02T04:44:24.923Z,41.80
2022-11-02T04:47:18.868Z,41.60
2022-11-02T04:49:50.661Z,42.70
2022-11-02T04:52:25.544Z,42.30
2022-11-02T04:54:58.889Z,44.50
2022-11-02T04:57:31.232Z,42.70
2022-11-02T05:00:05.238Z,41.40
2022-11-02T05:02:37.779Z,42.00
2022-11-02T05:05:12.816Z,41.30
2022-11-02T05:07:46.356Z,40.70
2022-11-02T05:10:18.560Z,39.80
2022-11-02T05:12:57.346Z,39.50
2022-11-02T05:15:30.643Z,39.10
2022-11-02T05:18:03.344Z,38.90
2022-11-02T05:20:35.717Z,39.70
2022-11-02T05:23:08.454Z,38.80
2022-11-02T05:25:45.391Z,39.70
2022-11-02T05:28:18.107Z,37.50
2022-11-02T05:30:53.230Z,37.60
2022-11-02T05:33:30.269Z,38.60
2022-11-02T05:36:03.601Z,38.40
2022-11-02T05:41:16.846Z,38.20
2022-11-02T05:43:48.848Z,38.10
2022-11-02T05:46:21.012Z,39.50
2022-11-02T05:48:53.247Z,40.30
2022-11-02T05:51:24.969Z,43.20
2022-11-02T05:53:56.792Z,42.40
2022-11-02T05:56:29.035Z,42.30
2022-11-02T05:59:01.153Z,40.90
2022-11-02T06:01:33.471Z,40.30
2022-11-02T06:04:05.672Z,41.10
2022-11-02T06:06:37.723Z,39.00
2022-11-02T06:09:10.825Z,37.60
2022-11-02T06:11:45.346Z,36.80
2022-11-02T06:14:17.308Z,35.50
2022-11-02T06:16:49.184Z,34.10
2022-11-02T06:19:21.310Z,30.10
2022-11-02T06:21:53.833Z,28.90
2022-11-02T06:24:26.012Z,26.40
2022-11-02T06:26:57.817Z,27.70
2022-11-02T06:29:31.716Z,26.60
2022-11-02T06:32:03.796Z,26.90
2022-11-02T06:34:35.838Z,26.60
2022-11-02T06:37:10.145Z,26.60
2022-11-02T06:39:42.210Z,26.50
2022-11-02T06:42:14.174Z,26.50
2022-11-02T06:44:45.981Z,26.10
2022-11-02T06:47:19.922Z,26.50
2022-11-02T06:49:52.107Z,26.50
2022-11-02T06:52:23.897Z,26.50
2022-11-02T06:54:56.366Z,25.90
2022-11-02T06:57:30.108Z,25.40
2022-11-02T07:00:05.155Z,25.80
2022-11-02T07:02:37.216Z,25.80
2022-11-02T07:05:09.649Z,25.40
2022-11-02T07:07:41.685Z,24.90
2022-11-02T07:10:14.610Z,23.70
2022-11-02T07:12:46.398Z,24.90
2022-11-02T07:15:18.392Z,23.50
2022-11-02T07:17:51.048Z,23.00
2022-11-02T07:20:23.108Z,24.00
2022-11-02T07:22:59.285Z,24.30
2022-11-02T07:25:34.051Z,25.60
2022-11-02T07:28:06.576Z,26.40
2022-11-02T07:30:38.437Z,27.90
2022-11-02T07:33:10.226Z,28.40
2022-11-02T07:35:47.667Z,29.00
2022-11-02T07:38:22.203Z,28.00
2022-11-02T07:40:54.329Z,26.10
2022-11-02T07:43:26.508Z,26.80
2022-11-02T07:46:08.498Z,39.40
2022-11-02T07:48:41.087Z,29.30
2022-11-02T07:51:13.378Z,26.20
2022-11-02T07:53:46.612Z,25.80
2022-11-02T07:56:24.162Z,25.80
2022-11-02T07:58:56.024Z,23.80
2022-11-02T08:01:29.109Z,23.20
2022-11-02T08:04:00.944Z,23.70
2022-11-02T08:06:32.811Z,23.60
2022-11-02T08:09:04.708Z,22.60
2022-11-02T08:11:59.155Z,22.40
2022-11-02T08:14:31.377Z,22.30
2022-11-02T08:17:03.196Z,21.80
2022-11-02T08:19:35.094Z,21.80
2022-11-02T08:22:07.034Z,21.90
2022-11-02T08:24:44.098Z,21.80
2022-11-02T08:27:17.212Z,21.70
2022-11-02T08:29:49.266Z,21.40
2022-11-02T08:32:21.135Z,21.10
2022-11-02T08:34:52.968Z,22.80
2022-11-02T08:37:25.057Z,22.70
2022-11-02T08:39:56.915Z,24.00
2022-11-02T08:42:28.730Z,23.70
2022-11-02T08:45:00.593Z,23.30
2022-11-02T08:47:32.399Z,23.90
2022-11-02T08:50:07.039Z,26.60
2022-11-02T08:52:40.783Z,27.50
2022-11-02T08:55:13.740Z,26.90
2022-11-02T08:57:49.431Z,26.80
2022-11-02T09:00:23.486Z,26.70
2022-11-02T09:03:03.850Z,25.70
2022-11-02T09:05:37.959Z,24.20
2022-11-02T09:08:12.464Z,24.40
2022-11-02T09:10:45.245Z,23.10
2022-11-02T09:13:25.408Z,23.20
2022-11-02T09:16:03.530Z,22.50
2022-11-02T09:18:35.454Z,22.90
2022-11-02T09:21:10.239Z,24.10
2022-11-02T09:23:44.984Z,26.50
2022-11-02T09:26:22.845Z,28.00
2022-11-02T09:28:54.770Z,27.70
2022-11-02T09:31:29.375Z,28.00
2022-11-02T09:34:01.367Z,29.90
2022-11-02T09:36:33.409Z,30.10
2022-11-02T09:39:05.260Z,30.20
2022-11-02T09:41:42.045Z,30.60
2022-11-02T09:44:20.128Z,31.50
2022-11-02T09:47:27.833Z,30.40
2022-11-02T09:49:45.719Z,30.20
2022-11-02T09:52:25.684Z,30.40
2022-11-02T09:54:59.951Z,30.80
2022-11-02T09:57:33.458Z,29.80
2022-11-02T10:00:06.268Z,30.10
2022-11-02T10:02:55.040Z,27.80
2022-11-02T10:05:41.011Z,28.10
2022-11-02T10:08:36.050Z,28.30
2022-11-02T10:11:21.358Z,25.50
2022-11-02T10:14:00.622Z,27.10
2022-11-02T10:16:37.786Z,25.50
2022-11-02T10:19:17.381Z,23.90
2022-11-02T10:21:53.031Z,22.60
2022-11-02T10:24:33.166Z,22.80
2022-11-02T10:27:14.444Z,24.30
2022-11-02T10:29:53.821Z,24.00
2022-11-02T10:32:26.132Z,24.70
2022-11-02T10:34:59.247Z,23.10
2022-11-02T10:37:57.242Z,22.70
2022-11-02T10:40:43.492Z,23.20
2022-11-02T10:43:25.508Z,21.20
2022-11-02T10:46:15.506Z,20.60
2022-11-02T10:48:54.539Z,20.50
2022-11-02T10:51:26.478Z,19.20
2022-11-02T10:53:58.407Z,19.70
2022-11-02T10:56:34.460Z,18.80
2022-11-02T10:59:14.573Z,18.00
2022-11-02T11:02:07.046Z,17.50
2022-11-02T11:04:39.192Z,17.20
2022-11-02T11:07:18.106Z,16.70
2022-11-02T11:09:52.613Z,16.60
2022-11-02T11:12:30.557Z,17.60
2022-11-02T11:20:55.671Z,17.70
2022-11-02T11:23:28.639Z,17.90
2022-11-02T11:26:03.195Z,16.80
2022-11-02T11:28:41.375Z,17.50
2022-11-02T11:31:16.453Z,16.60
2022-11-02T11:33:53.020Z,14.90
2022-11-02T11:36:29.409Z,15.30
2022-11-02T11:39:06.295Z,16.80
2022-11-02T11:41:42.388Z,18.70
2022-11-02T11:44:16.538Z,20.50
2022-11-02T11:46:51.227Z,19.80
2022-11-02T11:52:32.682Z,18.10
2022-11-02T11:55:23.123Z,15.80
2022-11-02T11:58:19.689Z,14.90
2022-11-02T12:01:10.532Z,14.60
2022-11-02T12:03:55.496Z,12.50
2022-11-02T12:06:33.856Z,13.50
2022-11-02T12:09:13.787Z,12.90
2022-11-02T12:11:54.717Z,12.20
2022-11-02T12:14:43.120Z,12.20
2022-11-02T12:17:39.262Z,11.80
2022-11-02T12:20:41.129Z,11.10
2022-11-02T12:23:32.288Z,10.90
2022-11-02T12:26:19.899Z,13.40
2022-11-02T12:29:07.533Z,11.90
2022-11-02T12:31:42.477Z,11.10
2022-11-02T12:34:36.018Z,11.80
2022-11-02T12:37:35.823Z,10.90
2022-11-02T12:43:12.612Z,12.40
2022-11-02T12:45:53.449Z,10.70
2022-11-02T12:48:35.392Z,10.60
2022-11-02T12:51:15.430Z,10.00
2022-11-02T12:53:55.225Z,9.20
2022-11-02T12:56:32.844Z,10.10
2022-11-02T12:59:04.701Z,9.50
2022-11-02T13:01:41.855Z,15.10
2022-11-02T13:04:23.265Z,11.70
2022-11-02T13:07:03.420Z,11.10
2022-11-02T13:09:39.272Z,9.80
2022-11-02T13:12:15.813Z,8.60
2022-11-02T13:14:53.856Z,8.90
2022-11-02T13:17:41.193Z,8.20
2022-11-02T13:20:19.797Z,7.00
2022-11-02T13:22:56.846Z,7.00
2022-11-02T13:25:37.414Z,6.60
2022-11-02T13:28:17.633Z,6.40
2022-11-02T13:30:50.613Z,6.50
2022-11-02T13:33:29.882Z,6.90
2022-11-02T13:36:02.280Z,5.70
2022-11-02T13:38:39.308Z,5.80
2022-11-02T13:41:29.152Z,5.60
2022-11-02T13:44:26.023Z,5.20
2022-11-02T13:47:18.974Z,5.00
2022-11-02T13:49:56.853Z,5.60
2022-11-02T13:52:38.247Z,4.20
2022-11-02T13:55:18.631Z,4.80
2022-11-02T13:57:54.728Z,4.50
2022-11-02T14:00:41.960Z,4.10
2022-11-02T14:03:19.751Z,4.40
2022-11-02T14:05:55.439Z,4.10
2022-11-02T14:08:38.889Z,3.70
2022-11-02T14:11:26.942Z,4.30
2022-11-02T14:14:26.606Z,3.80
2022-11-02T14:17:13.258Z,5.10
2022-11-02T14:20:04.921Z,5.50
2022-11-02T14:22:39.613Z,5.00
2022-11-02T14:25:21.515Z,4.50
2022-11-02T14:27:56.879Z,3.80
2022-11-02T14:44:24.120Z,6.20
2022-11-02T14:47:01.977Z,5.70
2022-11-02T14:49:37.068Z,6.10
2022-11-02T14:52:18.596Z,6.40
2022-11-02T14:54:54.042Z,6.00
2022-11-02T14:57:30.519Z,4.90
2022-11-02T15:00:05.952Z,6.10
2022-11-02T15:02:43.430Z,15.20
2022-11-02T15:05:28.534Z,21.40
2022-11-02T15:08:04.360Z,25.70
2022-11-02T15:10:43.883Z,14.60
2022-11-02T15:13:48.650Z,14.20
2022-11-02T15:16:42.321Z,8.40
2022-11-02T15:19:43.817Z,7.30
2022-11-02T15:22:40.628Z,5.90
2022-11-02T15:25:21.325Z,6.10
2022-11-02T15:27:57.388Z,6.40
2022-11-02T15:30:29.603Z,17.00
2022-11-02T15:33:05.770Z,7.00
2022-11-02T15:35:42.674Z,6.10
2022-11-02T15:38:18.508Z,7.60
2022-11-02T15:41:05.983Z,35.20
2022-11-02T15:43:57.282Z,10.90
2022-11-02T15:46:48.003Z,8.80
2022-11-02T15:49:41.039Z,10.60
2022-11-02T15:52:26.916Z,13.00
2022-11-02T15:55:11.512Z,18.00
2022-11-02T15:57:53.607Z,19.40
2022-11-02T16:00:30.936Z,11.50
2022-11-02T16:03:05.694Z,9.90
2022-11-02T16:05:51.356Z,8.40
2022-11-02T16:08:32.694Z,31.20
2022-11-02T16:11:13.774Z,10.60
2022-11-02T16:14:07.999Z,85.20
2022-11-02T16:16:49.389Z,15.60
2022-11-02T16:19:23.242Z,22.90
2022-11-02T16:22:00.993Z,65.40
2022-11-02T16:24:34.540Z,10.40
2022-11-02T16:27:10.378Z,8.20
2022-11-02T16:29:42.691Z,7.60
2022-11-02T16:32:15.482Z,4.40
2022-11-02T16:34:47.704Z,4.90
2022-11-02T16:37:21.626Z,5.80
2022-11-02T16:39:54.006Z,7.80
2022-11-02T16:42:28.811Z,36.60
2022-11-02T16:45:04.796Z,4.90
2022-11-02T16:47:41.872Z,8.40
2022-11-02T16:50:25.541Z,4.50
2022-11-02T16:53:01.380Z,4.40
2022-11-02T16:55:40.299Z,6.70
2022-11-02T16:58:21.689Z,7.50
2022-11-02T17:00:59.763Z,10.20
2022-11-02T17:03:40.117Z,8.00
2022-11-02T17:06:13.448Z,12.40
2022-11-02T17:08:51.140Z,10.30
2022-11-02T17:11:25.220Z,9.10
2022-11-02T17:14:01.814Z,9.90
2022-11-02T17:16:36.538Z,11.60
2022-11-02T17:19:29.421Z,21.10
2022-11-02T17:22:15.808Z,18.90
2022-11-02T17:24:48.261Z,13.00
2022-11-02T17:27:26.830Z,10.80
2022-11-02T17:29:58.914Z,8.60
2022-11-02T17:32:31.550Z,7.90
2022-11-02T17:35:07.381Z,7.60
2022-11-02T17:37:39.857Z,9.90
2022-11-02T17:40:14.901Z,30.10
2022-11-02T17:43:02.523Z,28.60
2022-11-02T17:45:37.459Z,26.10
2022-11-02T17:48:10.990Z,18.60
2022-11-02T17:50:44.380Z,16.20
2022-11-02T17:53:16.414Z,13.90
2022-11-02T17:55:48.480Z,11.50
2022-11-02T17:58:20.415Z,13.30
2022-11-02T18:00:54.633Z,9.40
2022-11-02T18:03:31.436Z,16.10
2022-11-02T18:06:03.886Z,30.10
2022-11-02T18:08:57.240Z,33.90
2022-11-02T18:11:29.094Z,22.80
2022-11-02T18:14:01.101Z,11.90
2022-11-02T18:16:33.756Z,9.00
2022-11-02T18:19:05.907Z,9.10
2022-11-02T18:21:37.952Z,7.90
2022-11-02T18:24:11.093Z,11.50
2022-11-02T18:26:45.888Z,10.30
2022-11-02T18:29:19.089Z,11.00
2022-11-02T18:31:51.230Z,16.00
2022-11-02T18:34:23.199Z,18.30
2022-11-02T18:36:55.062Z,15.50
2022-11-02T18:39:26.930Z,11.40
2022-11-02T18:41:58.920Z,9.60
2022-11-02T18:44:30.851Z,8.30
2022-11-02T18:47:03.167Z,7.70
2022-11-02T18:49:35.546Z,7.30
2022-11-02T18:52:12.597Z,7.20
2022-11-02T18:54:44.539Z,10.30
2022-11-02T18:57:16.551Z,12.20
2022-11-02T18:59:48.637Z,11.90
2022-11-02T19:02:20.684Z,12.90
2022-11-02T19:04:53.184Z,10.00
2022-11-02T19:07:45.530Z,9.80
2022-11-02T19:10:19.710Z,8.90
2022-11-02T19:12:51.597Z,8.00
2022-11-02T19:15:23.590Z,7.90
2022-11-02T19:17:55.598Z,10.70
2022-11-02T19:20:27.591Z,17.80
2022-11-02T19:22:59.478Z,28.50
2022-11-02T19:25:34.356Z,23.40
2022-11-02T19:28:07.078Z,18.80
2022-11-02T19:30:41.144Z,23.90
2022-11-02T19:33:13.231Z,18.00
2022-11-02T19:35:55.015Z,15.10
2022-11-02T19:38:27.679Z,15.80
2022-11-02T19:41:10.087Z,10.90
2022-11-02T19:43:43.804Z,8.10
2022-11-02T19:46:18.335Z,7.70
2022-11-02T19:48:50.706Z,8.30
2022-11-02T19:51:24.317Z,7.20
2022-11-02T19:53:59.324Z,6.40
2022-11-02T19:56:34.263Z,6.40
2022-11-02T19:59:15.186Z,6.70
2022-11-02T20:01:50.740Z,6.20
2022-11-02T20:04:25.079Z,7.40
2022-11-02T20:06:58.377Z,6.70
2022-11-02T20:09:30.877Z,6.90
2022-11-02T20:12:07.447Z,6.50
2022-11-02T20:14:39.504Z,6.80
2022-11-02T20:17:30.080Z,6.40
2022-11-02T20:20:04.324Z,6.50
2022-11-02T20:22:38.713Z,6.40
2022-11-02T20:25:12.324Z,6.60
2022-11-02T20:27:45.318Z,6.30
2022-11-02T20:30:22.395Z,6.50
2022-11-02T20:32:54.526Z,5.70
2022-11-02T20:35:29.533Z,5.70
2022-11-02T20:38:04.785Z,4.80
2022-11-02T20:40:41.105Z,4.50
2022-11-02T20:43:14.265Z,5.20
2022-11-02T20:45:46.552Z,5.00
2022-11-02T20:48:18.886Z,4.40
2022-11-02T20:50:51.053Z,4.70
2022-11-02T20:53:23.255Z,4.20
2022-11-02T20:55:56.138Z,3.90
2022-11-02T20:58:28.562Z,4.40
2022-11-02T21:01:01.259Z,4.90
2022-11-02T21:03:33.488Z,4.40
2022-11-02T21:06:09.606Z,4.70
2022-11-02T21:08:43.223Z,4.90
2022-11-02T21:11:32.803Z,4.70
2022-11-02T21:14:04.839Z,5.10
2022-11-02T21:16:40.276Z,4.60
2022-11-02T21:19:12.105Z,4.30
2022-11-02T21:21:45.140Z,4.40
2022-11-02T21:24:22.264Z,3.40
2022-11-02T21:26:54.356Z,4.10
2022-11-02T21:29:26.376Z,3.50
2022-11-02T21:31:58.450Z,3.80
2022-11-02T21:34:30.312Z,3.00
2022-11-02T21:37:06.638Z,4.30
2022-11-02T21:39:41.883Z,3.00
2022-11-02T21:42:13.816Z,3.20
2022-11-02T21:44:45.868Z,3.20
2022-11-02T21:47:17.946Z,3.20
2022-11-02T21:49:50.034Z,2.70
2022-11-02T21:52:21.974Z,2.90
2022-11-02T21:54:56.069Z,2.90
2022-11-02T21:57:28.088Z,2.30
2022-11-02T22:00:00.176Z,2.50
2022-11-02T22:02:35.106Z,2.90
2022-11-02T22:05:07.871Z,2.70
2022-11-02T22:07:53.844Z,3.10
2022-11-02T22:10:26.174Z,3.10
2022-11-02T22:13:15.796Z,3.00
2022-11-02T22:15:47.887Z,2.70
2022-11-02T22:18:20.565Z,3.40
2022-11-02T22:20:58.519Z,2.70
2022-11-02T22:23:30.634Z,3.20
2022-11-02T22:26:05.836Z,2.70
2022-11-02T22:28:40.466Z,3.10
2022-11-02T22:31:14.767Z,3.10
2022-11-02T22:33:47.847Z,3.10
2022-11-02T22:36:21.914Z,3.70
2022-11-02T22:38:57.937Z,3.50
2022-11-02T22:41:31.954Z,3.20
2022-11-02T22:44:06.307Z,3.50
2022-11-02T22:46:40.315Z,2.90
2022-11-02T22:49:14.591Z,3.00
2022-11-02T22:51:49.131Z,3.10
2022-11-02T22:54:22.030Z,10.10
2022-11-02T22:56:58.539Z,4.20
2022-11-02T22:59:30.614Z,3.10
2022-11-02T23:02:02.797Z,3.10
2022-11-02T23:04:34.864Z,2.60
2022-11-02T23:09:54.775Z,2.90
2022-11-02T23:12:26.653Z,2.60
2022-11-02T23:14:58.662Z,2.60
2022-11-02T23:17:30.724Z,3.00
2022-11-02T23:20:02.712Z,2.70
2022-11-02T23:22:53.864Z,2.70
2022-11-02T23:25:26.144Z,2.70
2022-11-02T23:28:28.704Z,2.50
2022-11-02T23:31:18.177Z,2.50
2022-11-02T23:33:50.742Z,2.60
2022-11-02T23:36:22.779Z,2.20
2022-11-02T23:39:12.651Z,2.30
2022-11-02T23:41:44.873Z,2.30
2022-11-02T23:44:19.098Z,2.90
2022-11-02T23:46:55.578Z,2.60
2022-11-02T23:49:27.655Z,2.50
2022-11-02T23:52:17.302Z,2.90
2022-11-02T23:55:06.761Z,2.40
2022-11-02T23:57:38.657Z,2.60
